RYR464 LOWW-LOWI
Flight info
| Callsign | RYR464 |
|---|---|
| Flight time | 0h 51m |
| Altitude | 28000 |
| Route | SOVIL DCT SITNI DCT BAGSI DCT NANIT NANIT2A |
| Aircraft | B738/M-SDE2E3FGHIRWXY/LB1 |
Departure
| Time | 2026-04-23 08:17 |
|---|---|
| Airport | Vienna International Airport (LOWW) |
Arrival
| Time | 2026-04-23 09:09 |
|---|---|
| Airport | Innsbruck Airport (LOWI) |
| Time | Latitude | Longitude | Altitude | Speed | Heading |
|---|---|---|---|---|---|
| 2026-04-23 08:13 | 48.11952 | 16.55304 | 616 ft | 2 kts | 211° |
| 2026-04-23 08:13 | 48.11945 | 16.55268 | 610 ft | 6 kts | 283° |
| 2026-04-23 08:13 | 48.11925 | 16.55191 | 609 ft | 11 kts | 206° |
| 2026-04-23 08:13 | 48.11859 | 16.55281 | 617 ft | 17 kts | 115° |
| 2026-04-23 08:14 | 48.11794 | 16.55479 | 613 ft | 25 kts | 116° |
| 2026-04-23 08:14 | 48.11715 | 16.55723 | 613 ft | 27 kts | 116° |
| 2026-04-23 08:14 | 48.11631 | 16.55981 | 609 ft | 28 kts | 116° |
| 2026-04-23 08:14 | 48.11546 | 16.56244 | 617 ft | 29 kts | 116° |
| 2026-04-23 08:15 | 48.11458 | 16.56511 | 609 ft | 28 kts | 116° |
| 2026-04-23 08:15 | 48.11376 | 16.56764 | 613 ft | 26 kts | 115° |
| 2026-04-23 08:15 | 48.11299 | 16.57000 | 621 ft | 24 kts | 116° |
| 2026-04-23 08:15 | 48.11226 | 16.57221 | 620 ft | 23 kts | 116° |
| 2026-04-23 08:16 | 48.11152 | 16.57449 | 618 ft | 26 kts | 116° |
| 2026-04-23 08:16 | 48.11082 | 16.57638 | 609 ft | 14 kts | 143° |
| 2026-04-23 08:16 | 48.10992 | 16.57610 | 609 ft | 14 kts | 206° |
| 2026-04-23 08:16 | 48.10924 | 16.57524 | 621 ft | 13 kts | 262° |
| 2026-04-23 08:17 | 48.10981 | 16.57329 | 618 ft | 46 kts | 296° |
| 2026-04-23 08:17 | 48.11228 | 16.56570 | 616 ft | 114 kts | 295° |
| 2026-04-23 08:17 | 48.11658 | 16.55307 | 837 ft | 148 kts | 300° |
| 2026-04-23 08:17 | 48.12132 | 16.53899 | 1643 ft | 149 kts | 294° |
| 2026-04-23 08:18 | 48.12409 | 16.52464 | 2603 ft | 152 kts | 277° |
| 2026-04-23 08:18 | 48.12044 | 16.50804 | 3148 ft | 193 kts | 247° |
| 2026-04-23 08:18 | 48.11248 | 16.49003 | 3404 ft | 221 kts | 245° |
| 2026-04-23 08:18 | 48.10362 | 16.46995 | 3788 ft | 240 kts | 244° |
| 2026-04-23 08:19 | 48.09375 | 16.44812 | 4184 ft | 262 kts | 241° |
| 2026-04-23 08:19 | 48.08276 | 16.42583 | 5078 ft | 267 kts | 240° |
| 2026-04-23 08:19 | 48.07156 | 16.40348 | 5944 ft | 273 kts | 239° |
| 2026-04-23 08:19 | 48.06001 | 16.38027 | 6718 ft | 281 kts | 239° |
| 2026-04-23 08:20 | 48.04848 | 16.35683 | 7528 ft | 285 kts | 243° |
| 2026-04-23 08:20 | 48.04147 | 16.32980 | 8312 ft | 279 kts | 264° |
| 2026-04-23 08:20 | 48.03749 | 16.30105 | 9102 ft | 285 kts | 265° |
| 2026-04-23 08:20 | 48.03363 | 16.27172 | 9876 ft | 291 kts | 265° |
| 2026-04-23 08:21 | 48.02965 | 16.24153 | 10446 ft | 305 kts | 265° |
| 2026-04-23 08:21 | 48.02533 | 16.20906 | 10625 ft | 330 kts | 264° |
| 2026-04-23 08:21 | 48.02060 | 16.17430 | 10886 ft | 351 kts | 263° |
| 2026-04-23 08:21 | 48.01547 | 16.13806 | 11507 ft | 360 kts | 263° |
| 2026-04-23 08:22 | 48.01015 | 16.10128 | 12266 ft | 363 kts | 263° |
| 2026-04-23 08:22 | 48.00473 | 16.06413 | 13000 ft | 369 kts | 263° |
| 2026-04-23 08:22 | 47.99921 | 16.02635 | 13707 ft | 375 kts | 263° |
| 2026-04-23 08:22 | 47.99364 | 15.98845 | 14376 ft | 380 kts | 263° |
| 2026-04-23 08:23 | 47.98791 | 15.94967 | 14994 ft | 385 kts | 262° |
| 2026-04-23 08:23 | 47.98207 | 15.91030 | 15615 ft | 389 kts | 262° |
| 2026-04-23 08:23 | 47.97616 | 15.87052 | 16230 ft | 395 kts | 262° |
| 2026-04-23 08:23 | 47.97018 | 15.83027 | 16895 ft | 400 kts | 261° |
| 2026-04-23 08:24 | 47.96411 | 15.78959 | 17523 ft | 404 kts | 261° |
| 2026-04-23 08:24 | 47.95794 | 15.74833 | 18103 ft | 410 kts | 261° |
| 2026-04-23 08:24 | 47.95169 | 15.70667 | 18697 ft | 414 kts | 261° |
| 2026-04-23 08:24 | 47.94536 | 15.66454 | 19278 ft | 418 kts | 261° |
| 2026-04-23 08:25 | 47.93904 | 15.62260 | 19826 ft | 421 kts | 261° |
| 2026-04-23 08:25 | 47.93259 | 15.57995 | 20419 ft | 423 kts | 261° |
| 2026-04-23 08:25 | 47.92608 | 15.53694 | 20952 ft | 427 kts | 260° |
| 2026-04-23 08:25 | 47.91949 | 15.49349 | 21475 ft | 431 kts | 260° |
| 2026-04-23 08:26 | 47.91283 | 15.44976 | 21983 ft | 434 kts | 260° |
| 2026-04-23 08:26 | 47.90609 | 15.40557 | 22506 ft | 437 kts | 260° |
| 2026-04-23 08:26 | 47.89929 | 15.36121 | 23044 ft | 440 kts | 260° |
| 2026-04-23 08:26 | 47.89244 | 15.31660 | 23540 ft | 444 kts | 260° |
| 2026-04-23 08:27 | 47.88550 | 15.27148 | 23974 ft | 447 kts | 260° |
| 2026-04-23 08:27 | 47.87849 | 15.22609 | 24361 ft | 450 kts | 260° |
| 2026-04-23 08:27 | 47.87144 | 15.18049 | 24756 ft | 454 kts | 260° |
| 2026-04-23 08:27 | 47.86430 | 15.13451 | 25136 ft | 457 kts | 260° |
| 2026-04-23 08:28 | 47.85718 | 15.08882 | 25509 ft | 460 kts | 260° |
| 2026-04-23 08:28 | 47.84990 | 15.04221 | 25876 ft | 463 kts | 260° |
| 2026-04-23 08:28 | 47.84255 | 14.99527 | 26233 ft | 467 kts | 259° |
| 2026-04-23 08:28 | 47.83514 | 14.94809 | 26588 ft | 469 kts | 259° |
| 2026-04-23 08:29 | 47.82766 | 14.90066 | 26947 ft | 472 kts | 259° |
| 2026-04-23 08:29 | 47.82014 | 14.85301 | 27280 ft | 475 kts | 259° |
| 2026-04-23 08:29 | 47.81254 | 14.80499 | 27597 ft | 478 kts | 259° |
| 2026-04-23 08:29 | 47.80486 | 14.75662 | 27900 ft | 482 kts | 259° |
| 2026-04-23 08:30 | 47.79711 | 14.70796 | 28255 ft | 484 kts | 259° |
| 2026-04-23 08:30 | 47.78931 | 14.65921 | 28602 ft | 486 kts | 259° |
| 2026-04-23 08:30 | 47.78146 | 14.61026 | 29037 ft | 486 kts | 259° |
| 2026-04-23 08:30 | 47.77369 | 14.56196 | 29509 ft | 485 kts | 259° |
| 2026-04-23 08:31 | 47.76582 | 14.51316 | 29987 ft | 484 kts | 259° |
| 2026-04-23 08:31 | 47.75796 | 14.46457 | 30337 ft | 485 kts | 259° |
| 2026-04-23 08:31 | 47.74201 | 14.36630 | 30316 ft | 489 kts | 259° |
| 2026-04-23 08:32 | 47.72607 | 14.26878 | 30313 ft | 483 kts | 259° |
| 2026-04-23 08:32 | 47.71013 | 14.17182 | 30324 ft | 483 kts | 259° |
| 2026-04-23 08:33 | 47.69420 | 14.07537 | 30320 ft | 484 kts | 259° |
| 2026-04-23 08:33 | 47.67808 | 13.97838 | 30138 ft | 481 kts | 259° |
| 2026-04-23 08:34 | 47.67008 | 13.93051 | 29829 ft | 473 kts | 258° |
| 2026-04-23 08:34 | 47.66218 | 13.88338 | 29543 ft | 468 kts | 258° |
| 2026-04-23 08:34 | 47.65433 | 13.83664 | 29281 ft | 465 kts | 258° |
| 2026-04-23 08:34 | 47.64652 | 13.79022 | 28996 ft | 462 kts | 258° |
| 2026-04-23 08:35 | 47.63874 | 13.74407 | 28726 ft | 460 kts | 258° |
| 2026-04-23 08:35 | 47.63107 | 13.69871 | 28459 ft | 457 kts | 258° |
| 2026-04-23 08:35 | 47.62333 | 13.65307 | 28185 ft | 456 kts | 258° |
| 2026-04-23 08:35 | 47.61560 | 13.60756 | 27934 ft | 454 kts | 258° |
| 2026-04-23 08:36 | 47.60788 | 13.56228 | 27679 ft | 453 kts | 258° |
| 2026-04-23 08:36 | 47.60017 | 13.51721 | 27390 ft | 451 kts | 258° |
| 2026-04-23 08:36 | 47.59247 | 13.47228 | 27131 ft | 449 kts | 258° |
| 2026-04-23 08:36 | 47.58478 | 13.42751 | 26894 ft | 447 kts | 258° |
| 2026-04-23 08:37 | 47.57712 | 13.38302 | 26638 ft | 446 kts | 258° |
| 2026-04-23 08:37 | 47.56945 | 13.33856 | 26389 ft | 445 kts | 257° |
| 2026-04-23 08:37 | 47.56177 | 13.29423 | 26149 ft | 443 kts | 257° |
| 2026-04-23 08:37 | 47.55408 | 13.24990 | 25910 ft | 442 kts | 257° |
| 2026-04-23 08:38 | 47.54651 | 13.20639 | 25657 ft | 441 kts | 257° |
| 2026-04-23 08:38 | 47.53882 | 13.16229 | 25396 ft | 439 kts | 257° |
| 2026-04-23 08:38 | 47.53119 | 13.11868 | 25110 ft | 435 kts | 257° |
| 2026-04-23 08:38 | 47.52360 | 13.07541 | 24714 ft | 432 kts | 257° |
| 2026-04-23 08:39 | 47.51617 | 13.03312 | 24287 ft | 429 kts | 257° |
| 2026-04-23 08:39 | 47.50866 | 12.99051 | 23843 ft | 427 kts | 257° |
| 2026-04-23 08:39 | 47.50119 | 12.94821 | 23336 ft | 424 kts | 257° |
| 2026-04-23 08:39 | 47.49373 | 12.90608 | 22859 ft | 421 kts | 257° |
| 2026-04-23 08:40 | 47.48632 | 12.86429 | 22399 ft | 418 kts | 257° |
| 2026-04-23 08:40 | 47.47899 | 12.82304 | 21988 ft | 413 kts | 257° |
| 2026-04-23 08:40 | 47.47169 | 12.78213 | 21538 ft | 410 kts | 257° |
| 2026-04-23 08:40 | 47.46444 | 12.74153 | 21111 ft | 407 kts | 257° |
| 2026-04-23 08:41 | 47.45725 | 12.70135 | 20659 ft | 403 kts | 257° |
| 2026-04-23 08:41 | 47.45012 | 12.66153 | 20272 ft | 399 kts | 257° |
| 2026-04-23 08:41 | 47.44301 | 12.62196 | 19852 ft | 397 kts | 258° |
| 2026-04-23 08:41 | 47.43592 | 12.58263 | 19428 ft | 395 kts | 258° |
| 2026-04-23 08:42 | 47.42894 | 12.54394 | 19036 ft | 394 kts | 258° |
| 2026-04-23 08:42 | 47.42186 | 12.50493 | 18578 ft | 392 kts | 258° |
| 2026-04-23 08:42 | 47.41486 | 12.46618 | 18117 ft | 390 kts | 258° |
| 2026-04-23 08:42 | 47.40785 | 12.42753 | 17672 ft | 387 kts | 258° |
| 2026-04-23 08:43 | 47.40089 | 12.38930 | 17173 ft | 386 kts | 258° |
| 2026-04-23 08:43 | 47.39300 | 12.35104 | 16580 ft | 390 kts | 251° |
| 2026-04-23 08:43 | 47.38124 | 12.31556 | 16422 ft | 380 kts | 240° |
| 2026-04-23 08:43 | 47.36758 | 12.28287 | 16399 ft | 369 kts | 239° |
| 2026-04-23 08:44 | 47.35392 | 12.25098 | 16317 ft | 367 kts | 239° |
| 2026-04-23 08:44 | 47.34030 | 12.21928 | 16282 ft | 374 kts | 239° |
| 2026-04-23 08:44 | 47.32646 | 12.18694 | 16186 ft | 371 kts | 239° |
| 2026-04-23 08:44 | 47.31270 | 12.15465 | 15806 ft | 372 kts | 239° |
| 2026-04-23 08:45 | 47.29895 | 12.12225 | 15369 ft | 372 kts | 239° |
| 2026-04-23 08:45 | 47.28520 | 12.08980 | 14912 ft | 373 kts | 239° |
| 2026-04-23 08:45 | 47.27608 | 12.06826 | 14654 ft | 372 kts | 239° |
| 2026-04-23 08:45 | 47.26245 | 12.03605 | 14334 ft | 369 kts | 239° |
| 2026-04-23 08:46 | 47.24889 | 12.00404 | 14031 ft | 367 kts | 239° |
| 2026-04-23 08:46 | 47.23541 | 11.97225 | 14001 ft | 367 kts | 239° |
| 2026-04-23 08:46 | 47.22185 | 11.94031 | 13975 ft | 368 kts | 239° |
| 2026-04-23 08:46 | 47.20829 | 11.90841 | 13980 ft | 366 kts | 239° |
| 2026-04-23 08:47 | 47.19475 | 11.87661 | 13973 ft | 366 kts | 239° |
| 2026-04-23 08:47 | 47.18129 | 11.84501 | 13976 ft | 366 kts | 239° |
| 2026-04-23 08:47 | 47.16774 | 11.81323 | 13975 ft | 367 kts | 239° |
| 2026-04-23 08:47 | 47.15416 | 11.78142 | 13966 ft | 368 kts | 239° |
| 2026-04-23 08:48 | 47.14053 | 11.74952 | 13988 ft | 368 kts | 239° |
| 2026-04-23 08:48 | 47.12691 | 11.71768 | 13957 ft | 367 kts | 240° |
| 2026-04-23 08:48 | 47.11612 | 11.68456 | 13964 ft | 362 kts | 256° |
| 2026-04-23 08:48 | 47.11237 | 11.64850 | 13993 ft | 355 kts | 273° |
| 2026-04-23 08:49 | 47.11407 | 11.61256 | 13979 ft | 352 kts | 279° |
| 2026-04-23 08:49 | 47.11636 | 11.57684 | 14000 ft | 352 kts | 279° |
| 2026-04-23 08:49 | 47.11879 | 11.54092 | 13986 ft | 353 kts | 279° |
| 2026-04-23 08:49 | 47.12123 | 11.50494 | 13979 ft | 354 kts | 279° |
| 2026-04-23 08:50 | 47.12361 | 11.46898 | 13962 ft | 353 kts | 279° |
| 2026-04-23 08:50 | 47.12590 | 11.43313 | 14004 ft | 352 kts | 279° |
| 2026-04-23 08:50 | 47.12814 | 11.39717 | 13996 ft | 354 kts | 279° |
| 2026-04-23 08:50 | 47.13035 | 11.36113 | 13968 ft | 355 kts | 279° |
| 2026-04-23 08:51 | 47.13253 | 11.32497 | 14000 ft | 354 kts | 279° |
| 2026-04-23 08:51 | 47.13471 | 11.28890 | 13992 ft | 355 kts | 279° |
| 2026-04-23 08:51 | 47.13688 | 11.25273 | 13968 ft | 355 kts | 278° |
| 2026-04-23 08:51 | 47.13900 | 11.21671 | 13984 ft | 355 kts | 278° |
| 2026-04-23 08:52 | 47.14111 | 11.18056 | 13993 ft | 355 kts | 278° |
| 2026-04-23 08:52 | 47.14323 | 11.14450 | 13961 ft | 354 kts | 278° |
| 2026-04-23 08:52 | 47.14530 | 11.10902 | 14015 ft | 353 kts | 278° |
| 2026-04-23 08:52 | 47.14745 | 11.07295 | 13969 ft | 354 kts | 279° |
| 2026-04-23 08:53 | 47.14968 | 11.03720 | 13786 ft | 349 kts | 278° |
| 2026-04-23 08:53 | 47.15199 | 11.00155 | 13439 ft | 347 kts | 279° |
| 2026-04-23 08:53 | 47.15434 | 10.96621 | 13007 ft | 347 kts | 278° |
| 2026-04-23 08:53 | 47.15676 | 10.93138 | 12984 ft | 338 kts | 279° |
| 2026-04-23 08:54 | 47.15899 | 10.89700 | 12966 ft | 340 kts | 278° |
| 2026-04-23 08:54 | 47.16128 | 10.86254 | 12980 ft | 346 kts | 279° |
| 2026-04-23 08:54 | 47.16373 | 10.82707 | 12961 ft | 349 kts | 279° |
| 2026-04-23 08:54 | 47.16618 | 10.79163 | 12944 ft | 346 kts | 279° |
| 2026-04-23 08:55 | 47.16861 | 10.75665 | 12928 ft | 343 kts | 279° |
| 2026-04-23 08:55 | 47.17104 | 10.72182 | 12965 ft | 344 kts | 279° |
| 2026-04-23 08:55 | 47.17351 | 10.68652 | 12947 ft | 349 kts | 279° |
| 2026-04-23 08:55 | 47.17600 | 10.65100 | 12938 ft | 350 kts | 279° |
| 2026-04-23 08:56 | 47.17848 | 10.61552 | 12941 ft | 348 kts | 279° |
| 2026-04-23 08:56 | 47.18170 | 10.58043 | 12914 ft | 344 kts | 290° |
| 2026-04-23 08:56 | 47.19287 | 10.55052 | 12949 ft | 325 kts | 317° |
| 2026-04-23 08:56 | 47.21042 | 10.53348 | 12948 ft | 293 kts | 347° |
| 2026-04-23 08:57 | 47.22967 | 10.52965 | 12944 ft | 269 kts | 6° |
| 2026-04-23 08:57 | 47.24741 | 10.53437 | 12919 ft | 251 kts | 20° |
| 2026-04-23 08:57 | 47.26242 | 10.54525 | 12910 ft | 231 kts | 34° |
| 2026-04-23 08:57 | 47.27534 | 10.55903 | 12925 ft | 228 kts | 44° |
| 2026-04-23 08:58 | 47.28387 | 10.57785 | 12953 ft | 219 kts | 65° |
| 2026-04-23 08:58 | 47.28718 | 10.59950 | 12936 ft | 214 kts | 81° |
| 2026-04-23 08:58 | 47.28810 | 10.62076 | 12893 ft | 203 kts | 83° |
| 2026-04-23 08:58 | 47.28876 | 10.64109 | 12907 ft | 198 kts | 83° |
| 2026-04-23 08:59 | 47.28952 | 10.66137 | 12940 ft | 201 kts | 82° |
| 2026-04-23 08:59 | 47.29038 | 10.68213 | 12951 ft | 205 kts | 81° |
| 2026-04-23 08:59 | 47.29127 | 10.70322 | 12948 ft | 207 kts | 84° |
| 2026-04-23 08:59 | 47.29197 | 10.72432 | 12964 ft | 205 kts | 83° |
| 2026-04-23 09:00 | 47.29270 | 10.74497 | 12738 ft | 197 kts | 83° |
| 2026-04-23 09:00 | 47.29348 | 10.76510 | 12090 ft | 198 kts | 83° |
| 2026-04-23 09:00 | 47.29427 | 10.78537 | 11423 ft | 198 kts | 83° |
| 2026-04-23 09:00 | 47.29506 | 10.80536 | 10842 ft | 198 kts | 83° |
| 2026-04-23 09:01 | 47.29584 | 10.82556 | 10300 ft | 197 kts | 84° |
| 2026-04-23 09:01 | 47.29663 | 10.84574 | 9766 ft | 196 kts | 83° |
| 2026-04-23 09:01 | 47.29741 | 10.86574 | 9227 ft | 196 kts | 84° |
| 2026-04-23 09:01 | 47.29816 | 10.88519 | 9067 ft | 180 kts | 84° |
| 2026-04-23 09:02 | 47.29887 | 10.90370 | 8904 ft | 183 kts | 84° |
| 2026-04-23 09:02 | 47.29954 | 10.92220 | 8756 ft | 177 kts | 85° |
| 2026-04-23 09:02 | 47.30021 | 10.94018 | 8469 ft | 176 kts | 84° |
| 2026-04-23 09:02 | 47.30090 | 10.95775 | 8310 ft | 170 kts | 85° |
| 2026-04-23 09:03 | 47.30149 | 10.97535 | 8021 ft | 171 kts | 84° |
| 2026-04-23 09:03 | 47.30220 | 10.99297 | 7741 ft | 175 kts | 84° |
| 2026-04-23 09:03 | 47.30291 | 11.01103 | 7447 ft | 179 kts | 85° |
| 2026-04-23 09:03 | 47.30357 | 11.02919 | 7151 ft | 175 kts | 86° |
| 2026-04-23 09:04 | 47.30421 | 11.04717 | 7100 ft | 176 kts | 86° |
| 2026-04-23 09:04 | 47.30483 | 11.06531 | 6995 ft | 178 kts | 86° |
| 2026-04-23 09:04 | 47.30549 | 11.08380 | 6681 ft | 182 kts | 87° |
| 2026-04-23 09:04 | 47.30280 | 11.10166 | 6245 ft | 178 kts | 115° |
| 2026-04-23 09:05 | 47.29775 | 11.11822 | 5798 ft | 176 kts | 113° |
| 2026-04-23 09:05 | 47.29306 | 11.13461 | 5487 ft | 172 kts | 113° |
| 2026-04-23 09:05 | 47.28833 | 11.15123 | 5086 ft | 180 kts | 113° |
| 2026-04-23 09:05 | 47.28350 | 11.16822 | 4678 ft | 178 kts | 112° |
| 2026-04-23 09:06 | 47.27870 | 11.18486 | 4258 ft | 173 kts | 113° |
| 2026-04-23 09:06 | 47.27418 | 11.20047 | 3954 ft | 163 kts | 113° |
| 2026-04-23 09:06 | 47.26977 | 11.21570 | 3647 ft | 159 kts | 112° |
| 2026-04-23 09:06 | 47.26542 | 11.23056 | 3400 ft | 159 kts | 113° |
| 2026-04-23 09:07 | 47.26102 | 11.24558 | 3176 ft | 159 kts | 113° |
| 2026-04-23 09:07 | 47.25665 | 11.26055 | 2967 ft | 159 kts | 113° |
| 2026-04-23 09:07 | 47.25345 | 11.27597 | 2799 ft | 157 kts | 91° |
| 2026-04-23 09:07 | 47.25451 | 11.29223 | 2554 ft | 163 kts | 80° |
| 2026-04-23 09:08 | 47.25646 | 11.30896 | 2335 ft | 166 kts | 81° |
| 2026-04-23 09:08 | 47.25824 | 11.32564 | 2054 ft | 164 kts | 81° |
| 2026-04-23 09:08 | 47.25995 | 11.34151 | 1898 ft | 143 kts | 81° |
| 2026-04-23 09:08 | 47.26117 | 11.35284 | 1904 ft | 81 kts | 81° |
| 2026-04-23 09:09 | 47.26121 | 11.35608 | 1898 ft | 20 kts | 124° |
| 2026-04-23 09:09 | 47.26151 | 11.35724 | 1900 ft | 11 kts | 329° |
| 2026-04-23 09:09 | 47.26152 | 11.35616 | 1893 ft | 11 kts | 261° |
| 2026-04-23 09:09 | 47.26134 | 11.35459 | 1897 ft | 20 kts | 261° |
| 2026-04-23 09:10 | 47.26097 | 11.35265 | 1894 ft | 16 kts | 213° |
| 2026-04-23 09:10 | 47.25898 | 11.35272 | 1903 ft | 9 kts | 217° |
| 2026-04-23 09:10 | 47.25879 | 11.35182 | 1894 ft | 9 kts | 257° |
| 2026-04-23 09:11 | 47.25865 | 11.35091 | 1899 ft | 9 kts | 257° |